Time;durP1;ratioP1;P1;durP2;ratioP2;P2;SDS_P1;SDS_P2;PMS_P1;PMS_P2;Temp;Humidity;BMP_temperature;BMP_pressure;BME280_temperature;BME280_humidity;BME280_pressure;Samples;Min_cycle;Max_cycle;Signal;HPM_P1;HPM_P2
2023/06/14 00:01:34;;;;;;;3.90;1.17;;;19.80;75.80;;;;;;5033442;28;20041;-71
2023/06/14 00:04:01;;;;;;;3.92;1.23;;;19.80;76.00;;;;;;5011163;28;20045;-71
2023/06/14 00:06:28;;;;;;;4.45;1.50;;;19.80;75.90;;;;;;5010814;28;20030;-73
2023/06/14 00:08:54;;;;;;;2.55;1.13;;;19.80;75.60;;;;;;5005266;28;20413;-73
2023/06/14 00:11:20;;;;;;;3.20;0.90;;;19.80;75.70;;;;;;5010301;28;20495;-73
2023/06/14 00:13:46;;;;;;;2.72;0.95;;;19.70;76.20;;;;;;5009340;28;20033;-73
2023/06/14 00:16:11;;;;;;;3.67;0.75;;;19.70;75.50;;;;;;5010187;28;20031;-73
2023/06/14 00:18:38;;;;;;;4.53;1.52;;;19.70;75.00;;;;;;5008596;28;20068;-76
2023/06/14 00:21:04;;;;;;;5.63;1.20;;;19.70;74.90;;;;;;5009914;28;20045;-73
2023/06/14 00:23:29;;;;;;;3.55;1.50;;;19.70;74.50;;;;;;5009699;28;20037;-72
2023/06/14 00:25:55;;;;;;;9.38;1.85;;;19.70;74.50;;;;;;5009934;28;20627;-73
2023/06/14 00:28:21;;;;;;;4.68;1.35;;;19.60;74.60;;;;;;5008437;28;20025;-73
2023/06/14 00:30:46;;;;;;;2.88;0.88;;;19.60;74.40;;;;;;5016083;28;20111;-72
2023/06/14 00:33:12;;;;;;;3.83;1.90;;;19.60;74.10;;;;;;5015276;28;20029;-72
2023/06/14 00:35:38;;;;;;;2.70;1.00;;;19.70;74.10;;;;;;5011084;28;20435;-75
2023/06/14 00:38:04;;;;;;;3.22;1.02;;;19.70;74.10;;;;;;5011307;28;20482;-71
2023/06/14 00:40:29;;;;;;;2.45;0.75;;;19.60;74.00;;;;;;5009412;28;20044;-72
2023/06/14 00:42:55;;;;;;;7.78;1.15;;;19.60;73.90;;;;;;5009758;28;20029;-72
2023/06/14 00:45:21;;;;;;;4.70;1.27;;;19.60;73.90;;;;;;5010339;28;20038;-75
2023/06/14 00:47:47;;;;;;;2.63;1.00;;;19.60;74.40;;;;;;5010206;28;20072;-71
2023/06/14 00:50:13;;;;;;;3.35;1.20;;;19.60;74.00;;;;;;5010699;28;20064;-73
2023/06/14 00:52:39;;;;;;;2.22;0.80;;;19.40;74.20;;;;;;5027775;28;20041;-73
2023/06/14 00:55:05;;;;;;;11.70;1.17;;;19.50;73.90;;;;;;5027414;28;20033;-72
2023/06/14 00:57:31;;;;;;;3.35;1.13;;;19.40;73.90;;;;;;5027721;28;20042;-74
2023/06/14 00:59:57;;;;;;;2.17;0.70;;;19.40;74.00;;;;;;5008464;28;20286;-73
2023/06/14 01:02:24;;;;;;;10.20;1.83;;;19.40;74.30;;;;;;5009863;28;20026;-73
2023/06/14 01:04:51;;;;;;;2.13;0.70;;;19.40;74.20;;;;;;5009030;28;20030;-76
2023/06/14 01:07:32;;;;;;;6.78;1.30;;;19.30;74.40;;;;;;5009630;28;20056;-74
2023/06/14 01:10:25;;;;;;;5.28;1.00;;;19.30;74.30;;;;;;5023161;28;24509;-72
2023/06/14 01:13:20;;;;;;;2.92;1.10;;;19.20;74.70;;;;;;5009229;28;20098;-75
2023/06/14 01:15:47;;;;;;;9.00;1.00;;;19.20;74.40;;;;;;5008422;28;20037;-72
2023/06/14 01:18:19;;;;;;;3.47;1.50;;;19.20;74.90;;;;;;5009602;28;20041;-73
2023/06/14 01:20:49;;;;;;;5.57;1.13;;;19.10;74.70;;;;;;5026104;28;20045;-72
2023/06/14 01:23:17;;;;;;;3.67;0.93;;;19.00;74.70;;;;;;5014660;28;20033;-72
2023/06/14 01:25:44;;;;;;;8.55;1.08;;;19.00;75.20;;;;;;5015316;28;20045;-74
2023/06/14 01:28:12;;;;;;;6.55;1.20;;;19.10;74.70;;;;;;5010291;28;20041;-74
2023/06/14 01:30:42;;;;;;;4.13;1.30;;;19.10;74.50;;;;;;5012006;28;20052;-75
2023/06/14 01:33:08;;;;;;;3.03;0.90;;;19.00;74.30;;;;;;5013280;28;20034;-72
2023/06/14 01:35:34;;;;;;;3.10;1.10;;;19.00;74.50;;;;;;5012986;28;20060;-73
2023/06/14 01:38:00;;;;;;;6.38;1.25;;;19.00;74.40;;;;;;5029948;28;20029;-73
2023/06/14 01:40:27;;;;;;;8.25;1.42;;;19.00;74.10;;;;;;5012744;28;20408;-73
2023/06/14 01:42:53;;;;;;;3.35;0.88;;;19.00;74.10;;;;;;5029585;28;20037;-74
2023/06/14 01:45:19;;;;;;;2.03;0.95;;;19.00;74.00;;;;;;5012835;28;20413;-74
2023/06/14 01:47:45;;;;;;;7.40;0.90;;;19.00;73.90;;;;;;5011832;28;20370;-72
2023/06/14 01:50:11;;;;;;;2.55;0.98;;;18.90;74.00;;;;;;5012291;28;20041;-74
2023/06/14 01:52:38;;;;;;;5.03;1.00;;;18.90;74.00;;;;;;5012791;28;20124;-73
2023/06/14 01:55:05;;;;;;;2.28;0.82;;;18.90;74.20;;;;;;5012317;28;20103;-73
2023/06/14 01:57:31;;;;;;;6.68;0.90;;;18.80;74.30;;;;;;5016516;28;20053;-74
2023/06/14 01:59:56;;;;;;;1.80;0.90;;;18.80;74.50;;;;;;5011122;28;20034;-74
2023/06/14 02:02:22;;;;;;;2.63;0.80;;;18.80;74.50;;;;;;5012868;28;20048;-73
2023/06/14 02:04:48;;;;;;;4.13;0.93;;;18.80;74.50;;;;;;5033071;28;20456;-72
2023/06/14 02:07:14;;;;;;;4.07;0.70;;;18.80;74.40;;;;;;5012378;28;20470;-74
2023/06/14 02:09:40;;;;;;;2.47;0.75;;;18.80;74.10;;;;;;5007098;28;20041;-75
2023/06/14 02:12:06;;;;;;;5.03;1.08;;;18.70;74.20;;;;;;5012756;28;20029;-72
2023/06/14 02:14:33;;;;;;;3.10;0.98;;;18.70;73.80;;;;;;5013116;28;20038;-71
2023/06/14 02:17:00;;;;;;;3.35;0.93;;;18.70;74.00;;;;;;5015027;28;20041;-73
2023/06/14 02:19:26;;;;;;;4.60;1.30;;;18.70;73.90;;;;;;5017523;28;20055;-73
2023/06/14 02:21:52;;;;;;;8.70;0.98;;;18.70;73.70;;;;;;5012227;28;20561;-72
2023/06/14 02:24:17;;;;;;;2.50;1.00;;;18.60;74.20;;;;;;5012155;28;20037;-75
2023/06/14 02:26:43;;;;;;;4.53;1.10;;;18.60;74.30;;;;;;5028578;28;20025;-71
2023/06/14 02:29:10;;;;;;;4.57;1.23;;;18.60;74.60;;;;;;5011909;28;20044;-75
2023/06/14 02:31:36;;;;;;;2.83;0.80;;;18.50;74.50;;;;;;5012162;28;20038;-73
2023/06/14 02:34:02;;;;;;;5.38;0.80;;;18.50;74.50;;;;;;5010988;28;20379;-74
2023/06/14 02:36:30;;;;;;;4.82;0.90;;;18.50;74.50;;;;;;5011636;28;20048;-72
2023/06/14 02:38:57;;;;;;;5.78;1.10;;;18.40;74.40;;;;;;5028090;28;20056;-73
2023/06/14 02:41:23;;;;;;;4.18;1.05;;;18.40;74.60;;;;;;5011453;28;20375;-72
2023/06/14 02:43:49;;;;;;;1.92;1.08;;;18.40;74.60;;;;;;5011075;28;20124;-72
2023/06/14 02:46:14;;;;;;;3.53;0.85;;;18.40;74.80;;;;;;5029795;28;20625;-73
2023/06/14 02:48:40;;;;;;;3.80;1.05;;;18.30;74.90;;;;;;5010711;28;20045;-73
2023/06/14 02:51:08;;;;;;;2.03;0.73;;;18.20;75.20;;;;;;5029180;28;20141;-73
2023/06/14 02:53:34;;;;;;;4.28;1.05;;;18.10;75.40;;;;;;5012386;28;20140;-75
2023/06/14 02:56:00;;;;;;;2.38;0.98;;;18.20;75.50;;;;;;5012532;28;20033;-73
2023/06/14 02:58:26;;;;;;;3.75;0.75;;;18.20;75.60;;;;;;5036152;28;20038;-73
2023/06/14 03:00:52;;;;;;;4.60;0.80;;;18.10;75.70;;;;;;5010222;28;20063;-74
2023/06/14 03:03:18;;;;;;;4.32;1.02;;;18.00;75.90;;;;;;5011854;28;20218;-74
2023/06/14 03:05:47;;;;;;;3.08;1.02;;;18.00;76.10;;;;;;5031229;28;20575;-73
2023/06/14 03:08:19;;;;;;;2.85;0.90;;;18.00;76.10;;;;;;5007445;28;20088;-74
2023/06/14 03:10:48;;;;;;;5.70;1.23;;;17.90;76.10;;;;;;5003606;28;20033;-72
2023/06/14 03:13:15;;;;;;;6.78;1.05;;;17.90;76.00;;;;;;5009961;28;20035;-74
2023/06/14 03:15:42;;;;;;;2.22;0.90;;;17.90;76.00;;;;;;5010540;28;20516;-72
2023/06/14 03:18:09;;;;;;;7.68;1.73;;;17.90;76.20;;;;;;5010996;28;20125;-73
2023/06/14 03:20:35;;;;;;;6.68;0.60;;;17.90;76.10;;;;;;5010725;28;20187;-74
2023/06/14 03:23:02;;;;;;;3.92;0.82;;;17.80;76.40;;;;;;5010924;28;20103;-72
2023/06/14 03:25:32;;;;;;;5.00;1.05;;;17.80;76.40;;;;;;5029104;28;20057;-71
2023/06/14 03:27:58;;;;;;;;;;;17.70;76.70;;;;;;5010883;28;20511;-72
2023/06/14 03:30:24;;;;;;;6.32;1.13;;;17.80;76.90;;;;;;5028754;28;19913;-73
2023/06/14 03:32:51;;;;;;;6.20;0.90;;;17.60;77.30;;;;;;5028379;28;20041;-72
2023/06/14 03:35:17;;;;;;;7.30;1.67;;;17.60;77.80;;;;;;5028946;28;20136;-73
2023/06/14 03:37:46;;;;;;;5.75;1.00;;;17.60;77.60;;;;;;5010687;28;20180;-73
2023/06/14 03:40:13;;;;;;;5.22;1.10;;;17.50;77.70;;;;;;5006898;28;20128;-72
2023/06/14 03:42:39;;;;;;;3.47;1.05;;;17.50;77.90;;;;;;5010441;28;20033;-72
2023/06/14 03:45:06;;;;;;;4.88;0.90;;;17.50;78.10;;;;;;5028944;28;20128;-71
2023/06/14 03:47:32;;;;;;;5.18;1.10;;;17.50;78.00;;;;;;5028626;28;20041;-71
2023/06/14 03:49:57;;;;;;;2.00;0.75;;;17.50;78.10;;;;;;5027581;28;20048;-72
2023/06/14 03:52:23;;;;;;;5.72;0.77;;;17.40;78.30;;;;;;5010921;28;20037;-72
2023/06/14 03:54:49;;;;;;;3.72;1.02;;;17.40;78.50;;;;;;5028296;28;20038;-72
2023/06/14 03:57:15;;;;;;;3.97;0.73;;;17.40;78.60;;;;;;5035686;28;20143;-71
2023/06/14 03:59:41;;;;;;;4.95;0.77;;;17.40;78.40;;;;;;5009553;28;20096;-71
2023/06/14 04:02:07;;;;;;;5.57;2.05;;;17.40;78.20;;;;;;5028480;28;20041;-72
2023/06/14 04:04:32;;;;;;;8.10;1.75;;;17.40;78.50;;;;;;5014179;28;20045;-71
2023/06/14 04:07:00;;;;;;;3.88;1.67;;;17.40;78.40;;;;;;5012084;28;20131;-71
2023/06/14 04:09:26;;;;;;;3.92;0.80;;;17.30;78.80;;;;;;5012242;28;20037;-73
2023/06/14 04:11:55;;;;;;;6.32;1.00;;;17.40;78.60;;;;;;5027640;28;20107;-72
2023/06/14 04:14:21;;;;;;;3.45;0.88;;;17.30;78.90;;;;;;5028640;28;20084;-71
2023/06/14 04:16:48;;;;;;;4.20;1.00;;;17.30;79.10;;;;;;5010638;28;20389;-73
2023/06/14 04:19:14;;;;;;;4.32;1.55;;;17.30;79.70;;;;;;5011273;28;20022;-73
2023/06/14 04:21:39;;;;;;;1.80;0.80;;;17.20;79.60;;;;;;5010421;28;20041;-72
2023/06/14 04:24:06;;;;;;;4.80;0.77;;;17.20;79.90;;;;;;5011350;28;20095;-73
2023/06/14 04:26:33;;;;;;;3.45;1.00;;;17.20;79.90;;;;;;5028048;28;20029;-72
2023/06/14 04:29:01;;;;;;;4.57;1.00;;;17.20;80.50;;;;;;5009374;28;20041;-72
2023/06/14 04:31:29;;;;;;;3.30;1.00;;;17.20;80.20;;;;;;5009646;28;20449;-73
2023/06/14 04:33:59;;;;;;;5.07;1.05;;;17.20;80.10;;;;;;5009106;28;20048;-72
2023/06/14 04:36:25;;;;;;;2.03;0.80;;;17.20;80.00;;;;;;5009409;28;20045;-73
2023/06/14 04:38:53;;;;;;;4.13;0.80;;;17.20;80.60;;;;;;5025939;28;20280;-73
2023/06/14 04:41:22;;;;;;;6.57;1.15;;;17.10;80.90;;;;;;5009803;28;20041;-72
2023/06/14 04:43:49;;;;;;;2.63;0.82;;;17.20;80.70;;;;;;5026290;28;20119;-73
2023/06/14 04:46:15;;;;;;;3.28;0.90;;;17.10;81.10;;;;;;5010113;28;20448;-73
2023/06/14 04:48:42;;;;;;;3.30;1.17;;;17.20;80.90;;;;;;5009452;28;20116;-72
2023/06/14 04:51:08;;;;;;;8.63;1.38;;;17.20;80.90;;;;;;5009506;28;20103;-72
2023/06/14 04:53:34;;;;;;;5.90;1.17;;;17.20;80.30;;;;;;5010149;28;20044;-72
2023/06/14 04:56:00;;;;;;;3.28;0.93;;;17.20;80.40;;;;;;5009461;28;20033;-74
2023/06/14 04:58:27;;;;;;;3.33;0.57;;;17.20;80.80;;;;;;5010679;28;20038;-71
2023/06/14 05:00:53;;;;;;;7.60;0.93;;;17.20;81.10;;;;;;5030508;28;20053;-71
2023/06/14 05:03:20;;;;;;;4.35;0.93;;;17.30;80.80;;;;;;5011721;28;20125;-72
2023/06/14 05:05:46;;;;;;;2.70;0.82;;;17.30;80.40;;;;;;5015374;28;20056;-73
2023/06/14 05:08:12;;;;;;;3.97;1.15;;;17.30;80.30;;;;;;5013229;28;20037;-72
2023/06/14 05:10:38;;;;;;;3.10;0.90;;;17.40;80.00;;;;;;5012465;28;20112;-72
2023/06/14 05:13:03;;;;;;;6.60;0.70;;;17.40;80.60;;;;;;5011606;28;20038;-70
2023/06/14 05:15:29;;;;;;;4.75;1.38;;;17.40;80.10;;;;;;5030620;28;20037;-71
2023/06/14 05:17:55;;;;;;;4.68;0.82;;;17.50;79.60;;;;;;5009354;28;20038;-71
2023/06/14 05:20:25;;;;;;;6.07;1.00;;;17.50;79.70;;;;;;5008898;28;20041;-72
2023/06/14 05:22:53;;;;;;;4.88;1.10;;;17.60;79.60;;;;;;5009343;28;20087;-71
2023/06/14 05:25:22;;;;;;;2.63;1.17;;;17.70;79.30;;;;;;5010112;28;20099;-73
2023/06/14 05:27:48;;;;;;;4.82;0.80;;;17.80;79.30;;;;;;5006803;28;20065;-71
2023/06/14 05:30:15;;;;;;;5.05;1.00;;;17.80;79.40;;;;;;5028083;28;20106;-72
2023/06/14 05:32:41;;;;;;;7.20;0.82;;;17.80;79.80;;;;;;5009151;28;20567;-71
2023/06/14 05:35:07;;;;;;;5.53;0.95;;;18.00;78.70;;;;;;5027530;28;20049;-72
2023/06/14 05:37:33;;;;;;;2.00;0.80;;;18.20;78.20;;;;;;5010472;28;20034;-72
2023/06/14 05:39:58;;;;;;;6.95;1.38;;;18.30;77.90;;;;;;5026760;28;20131;-71
2023/06/14 05:42:24;;;;;;;6.03;1.52;;;18.50;77.00;;;;;;5009867;28;20132;-72
2023/06/14 05:44:50;;;;;;;2.45;0.85;;;18.70;76.60;;;;;;5009422;28;20053;-70
2023/06/14 05:47:16;;;;;;;2.80;1.00;;;18.90;76.20;;;;;;5027953;28;20504;-72
2023/06/14 05:49:41;;;;;;;2.95;0.80;;;19.20;75.80;;;;;;5009713;28;20059;-71
2023/06/14 05:52:08;;;;;;;7.43;1.42;;;19.60;75.00;;;;;;5010543;28;20489;-72
2023/06/14 05:54:33;;;;;;;2.92;0.70;;;20.10;73.40;;;;;;5018475;28;20029;-71
2023/06/14 05:57:01;;;;;;;6.40;1.05;;;20.40;72.30;;;;;;5039853;28;21131;-72
2023/06/14 05:59:27;;;;;;;7.13;1.48;;;20.70;72.70;;;;;;5029358;28;20053;-70
2023/06/14 06:01:53;;;;;;;2.22;0.90;;;21.10;71.10;;;;;;5010960;28;20531;-71
2023/06/14 06:04:19;;;;;;;3.92;1.10;;;21.30;70.70;;;;;;5029373;28;20048;-71
2023/06/14 06:06:45;;;;;;;2.47;0.93;;;21.50;69.90;;;;;;5008774;28;20142;-71
2023/06/14 06:09:10;;;;;;;4.50;1.08;;;21.70;69.90;;;;;;5009136;28;20124;-72
2023/06/14 06:11:36;;;;;;;4.93;0.80;;;21.90;69.60;;;;;;5008964;28;20061;-72
2023/06/14 06:14:01;;;;;;;6.18;0.90;;;22.00;68.20;;;;;;5025147;28;20041;-73
2023/06/14 06:16:27;;;;;;;2.35;0.50;;;22.00;69.00;;;;;;5026529;28;20409;-73
2023/06/14 06:18:52;;;;;;;7.70;1.00;;;22.00;68.50;;;;;;5025492;28;20037;-73
2023/06/14 06:21:18;;;;;;;3.97;0.90;;;22.10;68.50;;;;;;5027230;28;20099;-74
2023/06/14 06:23:44;;;;;;;6.38;1.50;;;22.20;68.40;;;;;;5008082;28;20056;-72
2023/06/14 06:26:09;;;;;;;3.60;0.98;;;22.30;67.40;;;;;;5009519;28;20048;-73
2023/06/14 06:28:35;;;;;;;3.95;0.98;;;22.30;66.50;;;;;;5027395;28;20101;-72
2023/06/14 06:31:00;;;;;;;1.70;1.00;;;22.30;66.90;;;;;;5010318;28;20049;-71
2023/06/14 06:33:26;;;;;;;5.82;1.10;;;22.30;67.20;;;;;;5028585;28;20768;-72
2023/06/14 06:35:52;;;;;;;2.78;0.63;;;22.30;67.90;;;;;;5027213;28;20682;-72
2023/06/14 06:38:18;;;;;;;7.38;1.55;;;22.40;67.30;;;;;;5027453;28;20067;-72
2023/06/14 06:40:44;;;;;;;7.53;1.08;;;22.60;66.90;;;;;;5026025;28;20057;-72
2023/06/14 06:43:13;;;;;;;1.88;0.60;;;22.80;67.10;;;;;;5009398;28;20044;-71
2023/06/14 06:45:39;;;;;;;4.15;1.05;;;23.00;67.30;;;;;;5034027;28;20117;-72
2023/06/14 06:48:05;;;;;;;6.15;0.95;;;23.10;65.40;;;;;;5041430;28;20034;-72
2023/06/14 06:50:31;;;;;;;6.88;1.00;;;23.30;65.50;;;;;;5011367;28;20049;-71
2023/06/14 06:52:57;;;;;;;1.60;0.80;;;23.40;66.10;;;;;;5026241;28;20022;-71
2023/06/14 06:55:23;;;;;;;6.30;1.20;;;23.60;66.10;;;;;;5011824;28;20034;-70
2023/06/14 06:57:49;;;;;;;3.17;0.90;;;23.90;66.40;;;;;;5029277;28;20194;-71
2023/06/14 07:00:16;;;;;;;5.03;0.85;;;24.40;63.20;;;;;;5009028;28;20107;-73
2023/06/14 07:02:41;;;;;;;5.70;1.48;;;24.90;62.60;;;;;;5007877;28;20519;-70
2023/06/14 07:05:07;;;;;;;2.10;0.90;;;25.40;61.40;;;;;;5008596;28;20397;-70
2023/06/14 07:07:33;;;;;;;4.70;1.67;;;26.00;60.60;;;;;;5026422;28;20433;-70
2023/06/14 07:10:00;;;;;;;12.70;1.23;;;26.60;59.50;;;;;;5006800;28;20095;-70
2023/06/14 07:12:26;;;;;;;8.10;1.48;;;27.40;59.00;;;;;;5026568;28;20034;-71
2023/06/14 07:14:51;;;;;;;11.23;1.23;;;27.90;58.10;;;;;;5025129;28;20040;-72
2023/06/14 07:17:17;;;;;;;2.35;1.13;;;28.30;57.50;;;;;;5026203;28;20037;-73
2023/06/14 07:19:42;;;;;;;11.15;1.50;;;28.60;58.00;;;;;;5024371;28;20041;-72
2023/06/14 07:22:08;;;;;;;5.28;1.35;;;29.10;56.80;;;;;;5022300;28;20042;-72
2023/06/14 07:24:36;;;;;;;13.45;1.90;;;29.40;56.10;;;;;;5026289;28;20041;-71
2023/06/14 07:27:03;;;;;;;8.95;1.55;;;30.50;56.10;;;;;;5009972;28;20037;-72
2023/06/14 07:29:28;;;;;;;6.68;2.10;;;31.30;55.60;;;;;;5026269;28;20107;-72
2023/06/14 07:31:54;;;;;;;4.75;1.63;;;31.90;54.10;;;;;;5006941;28;20440;-72
2023/06/14 07:34:19;;;;;;;3.22;1.27;;;32.10;53.00;;;;;;5025475;28;20120;-73
2023/06/14 07:36:45;;;;;;;5.38;1.48;;;32.30;53.40;;;;;;5023324;28;20830;-72
2023/06/14 07:39:11;;;;;;;7.32;1.55;;;33.00;53.30;;;;;;5024893;28;20034;-72
2023/06/14 07:41:36;;;;;;;4.75;1.83;;;33.20;53.30;;;;;;5026108;28;20049;-72
2023/06/14 07:44:02;;;;;;;5.00;1.55;;;33.60;52.00;;;;;;5006623;28;20029;-71
2023/06/14 07:46:28;;;;;;;4.88;1.63;;;33.70;52.40;;;;;;5026118;28;20390;-73
2023/06/14 07:48:53;;;;;;;4.78;1.67;;;33.50;51.20;;;;;;5026991;28;20041;-71
2023/06/14 07:51:19;;;;;;;3.03;1.40;;;33.10;51.10;;;;;;5009033;28;20028;-72
2023/06/14 07:53:46;;;;;;;2.92;1.50;;;32.90;50.60;;;;;;5025579;28;20057;-72
2023/06/14 07:56:11;;;;;;;8.75;1.92;;;32.50;51.70;;;;;;5010187;28;20033;-72
2023/06/14 07:58:37;;;;;;;10.77;1.40;;;32.50;52.00;;;;;;5010543;28;20037;-71
2023/06/14 08:01:06;;;;;;;3.20;1.10;;;32.30;51.80;;;;;;5009148;28;20037;-72
2023/06/14 08:03:31;;;;;;;6.25;1.65;;;32.40;51.60;;;;;;5029132;28;20037;-71
2023/06/14 08:05:57;;;;;;;2.65;1.45;;;32.50;51.40;;;;;;5027481;28;20512;-72
2023/06/14 08:08:23;;;;;;;11.40;1.40;;;32.80;51.30;;;;;;5008560;28;20144;-71
2023/06/14 08:10:49;;;;;;;5.00;1.20;;;32.20;51.10;;;;;;5025934;28;20045;-71
2023/06/14 08:13:14;;;;;;;10.40;1.20;;;31.90;51.70;;;;;;5012965;28;20841;-71
2023/06/14 08:15:40;;;;;;;1.95;0.90;;;31.80;52.20;;;;;;5016739;28;20030;-74
2023/06/14 08:18:06;;;;;;;6.63;1.23;;;31.60;51.80;;;;;;5028257;28;20034;-71
2023/06/14 08:20:31;;;;;;;2.65;1.10;;;31.50;51.90;;;;;;5010750;28;20406;-71
2023/06/14 08:22:58;;;;;;;4.78;1.10;;;31.00;52.30;;;;;;5027257;28;20030;-71
2023/06/14 08:25:23;;;;;;;3.38;1.05;;;30.50;54.30;;;;;;5009037;28;20033;-74
2023/06/14 08:27:50;;;;;;;3.25;1.00;;;30.10;52.50;;;;;;5022854;28;20048;-70
2023/06/14 08:30:17;;;;;;;1.63;0.80;;;29.80;53.20;;;;;;5026986;28;20049;-72
2023/06/14 08:32:43;;;;;;;7.20;0.98;;;29.50;53.50;;;;;;5027045;28;20493;-70
2023/06/14 08:35:08;;;;;;;3.95;1.00;;;29.10;53.60;;;;;;5009802;28;20046;-70
2023/06/14 08:37:39;;;;;;;1.75;0.77;;;28.30;53.30;;;;;;5009885;28;20036;-72
2023/06/14 08:40:27;;;;;;;2.83;0.93;;;28.10;54.20;;;;;;5022284;28;20033;-71
2023/06/14 08:42:54;;;;;;;1.15;0.85;;;27.80;54.30;;;;;;5023293;28;20037;-72
2023/06/14 08:45:24;;;;;;;5.07;0.77;;;27.80;55.00;;;;;;5007471;28;20079;-71
2023/06/14 08:47:51;;;;;;;1.67;0.63;;;27.80;54.50;;;;;;5005588;28;20030;-71
2023/06/14 08:50:30;;;;;;;3.72;0.85;;;27.60;54.40;;;;;;5006920;28;20038;-72
2023/06/14 08:53:02;;;;;;;4.07;0.80;;;27.60;54.70;;;;;;5004811;28;20088;-71
2023/06/14 08:55:28;;;;;;;3.40;1.08;;;27.60;54.90;;;;;;5007928;28;20033;-71
2023/06/14 08:57:57;;;;;;;4.32;0.75;;;27.50;55.30;;;;;;5006953;28;20084;-70
2023/06/14 09:00:24;;;;;;;3.55;0.75;;;27.60;54.20;;;;;;5023656;28;20543;-70
2023/06/14 09:02:57;;;;;;;3.50;0.73;;;27.60;54.20;;;;;;5006557;28;20512;-71
2023/06/14 09:05:23;;;;;;;2.35;0.82;;;27.50;54.20;;;;;;5007120;28;20035;-71
2023/06/14 09:07:50;;;;;;;1.90;0.47;;;27.40;53.80;;;;;;5023587;28;20493;-71
2023/06/14 09:10:16;;;;;;;2.80;0.70;;;27.40;53.90;;;;;;5024929;28;20041;-72
2023/06/14 09:12:43;;;;;;;1.83;0.80;;;27.30;53.60;;;;;;5006315;28;20038;-71
2023/06/14 09:15:09;;;;;;;3.45;0.90;;;27.30;53.40;;;;;;5024636;28;20045;-72
2023/06/14 09:17:35;;;;;;;5.32;0.70;;;27.20;53.50;;;;;;5005964;28;20038;-72
2023/06/14 09:20:06;;;;;;;0.80;0.40;;;27.20;53.30;;;;;;5005283;28;20055;-72
2023/06/14 09:22:32;;;;;;;1.30;0.50;;;27.40;54.00;;;;;;5024891;28;20037;-71
2023/06/14 09:24:57;;;;;;;3.83;0.65;;;27.60;53.20;;;;;;5005555;28;20053;-72
2023/06/14 09:27:26;;;;;;;2.65;0.68;;;27.40;53.10;;;;;;5024792;28;20065;-71
2023/06/14 09:29:51;;;;;;;6.95;0.70;;;27.40;53.10;;;;;;5003822;28;20107;-71
2023/06/14 09:32:17;;;;;;;1.73;0.60;;;27.30;52.90;;;;;;5006855;28;20064;-71
2023/06/14 09:34:43;;;;;;;7.53;0.65;;;27.30;54.00;;;;;;5005321;28;20411;-72
2023/06/14 09:37:08;;;;;;;2.15;0.50;;;27.20;53.50;;;;;;5024102;28;20037;-72
2023/06/14 09:39:34;;;;;;;2.78;0.60;;;27.30;53.70;;;;;;5006491;28;20041;-72
2023/06/14 09:41:59;;;;;;;2.00;0.50;;;27.30;53.00;;;;;;5005155;28;20124;-72
2023/06/14 09:44:28;;;;;;;1.30;0.30;;;27.30;53.40;;;;;;5006495;28;20612;-72
2023/06/14 09:46:55;;;;;;;3.53;1.00;;;27.30;52.90;;;;;;5022907;28;20482;-71
2023/06/14 09:49:21;;;;;;;5.50;0.77;;;27.40;53.30;;;;;;5022729;28;20112;-71
2023/06/14 09:51:51;;;;;;;4.82;0.50;;;27.40;52.70;;;;;;5009250;28;20132;-71
2023/06/14 09:54:25;;;;;;;6.35;0.47;;;27.40;53.50;;;;;;5010639;28;20393;-72
2023/06/14 09:56:51;;;;;;;0.88;0.60;;;27.60;53.80;;;;;;5025113;28;20521;-71
2023/06/14 09:59:21;;;;;;;5.20;0.40;;;27.70;53.10;;;;;;5027548;28;20868;-71
2023/06/14 10:01:49;;;;;;;4.63;0.50;;;27.80;51.70;;;;;;5008633;28;20037;-74
2023/06/14 10:04:19;;;;;;;1.38;0.40;;;27.80;52.10;;;;;;5027438;28;20037;-72
2023/06/14 10:06:46;;;;;;;1.33;0.32;;;27.80;51.70;;;;;;5008877;28;20056;-73
2023/06/14 10:09:12;;;;;;;3.25;0.75;;;27.70;51.80;;;;;;5010054;28;20038;-71
2023/06/14 10:11:43;;;;;;;2.13;0.50;;;27.80;51.80;;;;;;5009959;28;20033;-73
2023/06/14 10:14:11;;;;;;;0.88;0.38;;;27.70;51.30;;;;;;5026090;28;20076;-72
2023/06/14 10:16:42;;;;;;;1.40;0.47;;;27.70;51.10;;;;;;5027251;28;20084;-72
2023/06/14 10:19:14;;;;;;;2.80;0.60;;;27.80;51.90;;;;;;5026707;28;20044;-72
2023/06/14 10:21:55;;;;;;;2.00;0.70;;;27.90;52.00;;;;;;5010982;28;20041;-72
2023/06/14 10:24:27;;;;;;;25.98;0.75;;;27.90;52.60;;;;;;5010723;28;20041;-72
2023/06/14 10:26:59;;;;;;;3.95;0.40;;;27.90;52.20;;;;;;5005857;28;20060;-72
2023/06/14 10:29:25;;;;;;;0.82;0.40;;;28.10;52.10;;;;;;5028038;28;20037;-72
2023/06/14 10:31:56;;;;;;;4.22;0.63;;;28.00;51.90;;;;;;5022683;28;20104;-73
2023/06/14 10:34:24;;;;;;;3.08;0.68;;;27.80;52.00;;;;;;5024933;28;20044;-72
2023/06/14 10:37:07;;;;;;;0.60;0.30;;;27.80;50.40;;;;;;5027267;28;20033;-73
2023/06/14 10:39:42;;;;;;;2.20;0.60;;;27.70;49.70;;;;;;5008396;28;20046;-72
2023/06/14 10:42:08;;;;;;;2.70;0.40;;;27.50;50.20;;;;;;5024651;28;20118;-72
2023/06/14 10:44:39;;;;;;;3.72;0.52;;;27.60;50.80;;;;;;5026955;28;20091;-71
2023/06/14 10:47:29;;;;;;;2.40;0.30;;;27.70;51.30;;;;;;5025662;28;20030;-72
2023/06/14 10:50:09;;;;;;;0.80;0.22;;;27.70;51.40;;;;;;5007599;28;20518;-72
2023/06/14 10:52:39;;;;;;;1.00;0.52;;;27.70;51.70;;;;;;5026666;28;20037;-72
2023/06/14 10:55:09;;;;;;;2.17;0.50;;;27.80;51.10;;;;;;5026635;28;20041;-72
2023/06/14 10:57:47;;;;;;;1.35;0.60;;;27.80;50.00;;;;;;5010191;28;20033;-72
2023/06/14 11:00:16;;;;;;;6.80;0.70;;;27.70;51.30;;;;;;5024915;28;20501;-72
2023/06/14 11:03:03;;;;;;;0.95;0.50;;;27.70;51.50;;;;;;5024665;28;20116;-72
2023/06/14 11:05:29;;;;;;;0.98;0.55;;;27.70;51.90;;;;;;5009588;28;20050;-72
2023/06/14 11:08:20;;;;;;;1.65;0.55;;;27.70;51.50;;;;;;5007799;28;20854;-72
2023/06/14 11:10:45;;;;;;;2.35;0.38;;;27.80;51.20;;;;;;5005036;28;20124;-71
2023/06/14 11:13:11;;;;;;;2.20;0.65;;;27.80;50.40;;;;;;5024533;28;20132;-71
2023/06/14 11:15:37;;;;;;;1.67;0.40;;;27.80;50.90;;;;;;5025291;28;20060;-72
2023/06/14 11:18:05;;;;;;;0.88;0.50;;;27.80;50.80;;;;;;5023609;28;20136;-71
2023/06/14 11:20:33;;;;;;;1.58;0.65;;;27.60;49.90;;;;;;5006905;28;20034;-72
2023/06/14 11:22:59;;;;;;;1.13;0.20;;;27.40;50.20;;;;;;5005033;28;20037;-71
2023/06/14 11:25:27;;;;;;;1.75;0.50;;;27.30;51.40;;;;;;5024023;28;20108;-72
2023/06/14 11:27:53;;;;;;;0.60;0.32;;;27.40;52.00;;;;;;5023868;28;20033;-71
2023/06/14 11:30:19;;;;;;;0.50;0.30;;;27.60;52.40;;;;;;5024576;28;20091;-72
2023/06/14 11:32:50;;;;;;;2.42;0.30;;;27.50;52.40;;;;;;5024896;28;20654;-72
2023/06/14 11:35:16;;;;;;;2.63;0.57;;;27.70;52.40;;;;;;5024592;28;20033;-71
2023/06/14 11:37:44;;;;;;;1.90;0.88;;;27.80;52.80;;;;;;5006115;28;20041;-71
2023/06/14 11:40:11;;;;;;;4.60;0.20;;;27.80;51.90;;;;;;5006689;28;20034;-71
2023/06/14 11:42:38;;;;;;;4.15;0.55;;;27.80;51.50;;;;;;5007341;28;20754;-71
2023/06/14 11:45:08;;;;;;;1.30;0.43;;;27.80;52.30;;;;;;5006367;28;20075;-72
2023/06/14 11:47:38;;;;;;;2.10;0.47;;;27.70;51.40;;;;;;5025666;28;20618;-72
2023/06/14 11:50:06;;;;;;;5.25;0.60;;;27.70;52.50;;;;;;5006483;28;20402;-72
2023/06/14 11:52:32;;;;;;;17.95;0.63;;;27.70;52.40;;;;;;5008289;28;20040;-71
2023/06/14 11:54:58;;;;;;;2.45;0.40;;;27.70;52.80;;;;;;5007386;28;20458;-71
2023/06/14 11:57:25;;;;;;;1.05;0.30;;;27.70;52.60;;;;;;5027984;28;20517;-71
2023/06/14 11:59:51;;;;;;;1.10;0.45;;;27.70;51.80;;;;;;5005543;28;20041;-71
2023/06/14 12:02:18;;;;;;;1.05;0.40;;;27.70;51.70;;;;;;5024562;28;20025;-71
2023/06/14 12:04:46;;;;;;;2.05;0.47;;;27.80;51.00;;;;;;5006080;28;20028;-71
2023/06/14 12:07:17;;;;;;;0.90;0.50;;;27.70;51.30;;;;;;5004314;28;20651;-70
2023/06/14 12:09:54;;;;;;;1.67;0.30;;;27.60;51.60;;;;;;5004668;28;20053;-71
2023/06/14 12:12:25;;;;;;;1.80;0.50;;;27.60;52.60;;;;;;5023648;28;20041;-71
2023/06/14 12:14:51;;;;;;;0.77;0.22;;;27.50;51.50;;;;;;5005076;28;20034;-71
2023/06/14 12:17:18;;;;;;;1.92;0.32;;;27.40;52.10;;;;;;5022867;28;20033;-72
2023/06/14 12:19:45;;;;;;;2.40;0.45;;;27.30;52.00;;;;;;5022677;28;20060;-72
2023/06/14 12:22:12;;;;;;;2.85;0.68;;;27.20;51.90;;;;;;5021674;28;20520;-71
2023/06/14 12:24:37;;;;;;;1.80;0.60;;;27.10;52.60;;;;;;5024357;28;20104;-73
2023/06/14 12:27:04;;;;;;;1.88;0.50;;;27.00;53.10;;;;;;5021518;28;20422;-71
2023/06/14 12:29:30;;;;;;;2.40;0.55;;;27.00;53.60;;;;;;5005969;28;20129;-72
2023/06/14 12:31:56;;;;;;;0.75;0.32;;;27.00;53.00;;;;;;5022723;28;20068;-72
2023/06/14 12:34:26;;;;;;;0.80;0.40;;;27.10;53.00;;;;;;5024171;28;20513;-73
2023/06/14 12:36:53;;;;;;;;;;;27.20;51.80;;;;;;5005261;28;20064;-72
2023/06/14 12:39:18;;;;;;;1.05;0.40;;;27.20;51.90;;;;;;5023741;28;19913;-73
2023/06/14 12:41:44;;;;;;;2.83;0.30;;;27.20;52.20;;;;;;5022948;28;20549;-72
2023/06/14 12:44:13;;;;;;;5.85;0.50;;;27.20;52.60;;;;;;5006304;28;20041;-72
2023/06/14 12:46:39;;;;;;;5.65;0.40;;;27.20;52.70;;;;;;5025571;28;20048;-74
2023/06/14 12:49:07;;;;;;;2.38;0.30;;;27.20;53.00;;;;;;5022913;28;20071;-72